createdAt,value
2023-11-25T00:01:13.410Z,4.71
2023-11-25T00:06:15.900Z,4.70
2023-11-25T00:11:25.639Z,4.70
2023-11-25T00:16:31.676Z,4.69
2023-11-25T00:21:33.320Z,4.64
2023-11-25T00:26:34.827Z,4.63
2023-11-25T00:31:36.401Z,4.63
2023-11-25T00:36:38.031Z,4.63
2023-11-25T00:41:39.799Z,4.64
2023-11-25T00:46:41.537Z,4.64
2023-11-25T00:51:43.344Z,4.63
2023-11-25T00:56:45.070Z,4.63
2023-11-25T01:01:46.728Z,4.65
2023-11-25T01:06:48.552Z,4.65
2023-11-25T01:11:50.357Z,4.68
2023-11-25T01:16:52.096Z,4.68
2023-11-25T01:21:53.752Z,4.70
2023-11-25T01:26:55.665Z,4.70
2023-11-25T01:31:57.207Z,4.70
2023-11-25T01:36:58.699Z,4.70
2023-11-25T01:42:00.332Z,4.67
2023-11-25T01:47:02.521Z,4.67
2023-11-25T01:52:06.384Z,4.65
2023-11-25T01:57:09.632Z,4.60
2023-11-25T02:02:16.016Z,4.59
2023-11-25T02:07:18.061Z,4.54
2023-11-25T02:12:19.566Z,4.53
2023-11-25T02:17:22.504Z,4.55
2023-11-25T02:22:26.461Z,4.51
2023-11-25T02:27:27.962Z,4.49
2023-11-25T02:32:29.553Z,4.49
2023-11-25T02:37:31.456Z,4.47
2023-11-25T02:42:33.002Z,4.46
2023-11-25T02:47:34.650Z,4.49
2023-11-25T02:52:36.200Z,4.50
2023-11-25T02:57:44.868Z,4.44
2023-11-25T03:02:50.896Z,4.40
2023-11-25T03:07:52.430Z,4.44
2023-11-25T03:12:54.938Z,4.48
2023-11-25T03:17:56.876Z,4.59
2023-11-25T03:22:58.791Z,4.59
2023-11-25T03:28:05.758Z,4.68
2023-11-25T03:33:07.742Z,4.80
2023-11-25T03:38:09.768Z,4.83
2023-11-25T03:43:11.519Z,4.86
2023-11-25T03:48:13.157Z,4.85
2023-11-25T03:53:14.694Z,4.85
2023-11-25T03:58:16.347Z,4.77
2023-11-25T04:03:18.325Z,4.85
2023-11-25T04:08:20.061Z,4.85
2023-11-25T04:13:21.685Z,4.87
2023-11-25T04:18:23.355Z,4.80
2023-11-25T04:23:26.378Z,4.80
2023-11-25T04:28:29.131Z,4.82
2023-11-25T04:33:30.668Z,4.79
2023-11-25T04:38:32.306Z,4.77
2023-11-25T04:43:33.915Z,4.73
2023-11-25T04:48:35.528Z,4.67
2023-11-25T04:53:37.375Z,4.67
2023-11-25T04:58:41.130Z,4.71
2023-11-25T05:03:42.656Z,4.68
2023-11-25T05:08:46.656Z,4.81
2023-11-25T05:13:48.149Z,4.88
2023-11-25T05:18:49.715Z,4.91
2023-11-25T05:23:51.206Z,4.97
2023-11-25T05:28:52.700Z,5.09
2023-11-25T05:33:54.463Z,4.93
2023-11-25T05:38:56.389Z,4.86
2023-11-25T05:43:58.735Z,4.82
2023-11-25T05:49:00.442Z,4.77
2023-11-25T05:54:02.162Z,4.76
2023-11-25T05:59:06.384Z,4.76
2023-11-25T06:04:08.016Z,4.77
2023-11-25T06:09:13.373Z,4.77
2023-11-25T06:14:16.654Z,4.79
2023-11-25T06:19:19.492Z,4.81
2023-11-25T06:24:21.647Z,4.82
2023-11-25T06:29:23.845Z,4.85
2023-11-25T06:34:25.482Z,4.81
2023-11-25T06:39:27.168Z,4.82
2023-11-25T06:44:28.793Z,4.87
2023-11-25T06:49:30.295Z,4.91
2023-11-25T06:54:32.318Z,5.03
2023-11-25T06:59:35.101Z,5.08
2023-11-25T07:04:37.577Z,5.12
2023-11-25T07:09:39.071Z,5.13
2023-11-25T07:14:41.309Z,5.21
2023-11-25T07:19:43.837Z,5.35
2023-11-25T07:24:47.867Z,5.42
2023-11-25T07:29:50.526Z,5.55
2023-11-25T07:34:52.046Z,5.61
2023-11-25T07:39:54.461Z,5.56
2023-11-25T07:44:56.181Z,5.63
2023-11-25T07:49:57.748Z,5.75
2023-11-25T07:54:59.419Z,6.01
2023-11-25T08:00:00.873Z,6.26
2023-11-25T08:05:04.559Z,6.41
2023-11-25T08:10:08.705Z,6.52
2023-11-25T08:15:10.629Z,6.70
2023-11-25T08:20:12.427Z,6.65
2023-11-25T08:25:14.068Z,6.59
2023-11-25T08:30:16.027Z,6.68
2023-11-25T08:35:17.559Z,6.67
2023-11-25T08:40:22.511Z,6.59
2023-11-25T08:45:25.434Z,6.64
2023-11-25T08:50:26.847Z,6.64
2023-11-25T08:55:28.398Z,6.75
2023-11-25T09:00:30.361Z,6.64
2023-11-25T09:05:32.765Z,6.65
2023-11-25T09:10:36.093Z,6.66
2023-11-25T09:15:41.861Z,6.69
2023-11-25T09:20:43.929Z,6.67
2023-11-25T09:25:45.560Z,6.51
2023-11-25T09:30:47.615Z,6.42
2023-11-25T09:35:49.310Z,6.28
2023-11-25T09:40:50.927Z,6.32
2023-11-25T09:45:54.065Z,6.63
2023-11-25T09:50:55.660Z,6.70
2023-11-25T09:56:05.579Z,6.88
2023-11-25T10:01:07.890Z,6.81
2023-11-25T10:06:10.037Z,6.81
2023-11-25T10:11:15.625Z,6.81
2023-11-25T10:16:30.343Z,6.71
2023-11-25T10:21:36.387Z,6.75
2023-11-25T10:26:38.896Z,6.85
2023-11-25T10:31:42.993Z,6.88
2023-11-25T10:36:46.622Z,6.94
2023-11-25T10:41:52.178Z,6.93
2023-11-25T10:46:57.328Z,6.90
2023-11-25T10:52:03.068Z,6.82
2023-11-25T10:57:06.254Z,6.82
2023-11-25T11:02:16.277Z,6.75
2023-11-25T11:07:20.001Z,6.89
2023-11-25T11:12:28.243Z,7.14
2023-11-25T11:17:44.800Z,7.13
2023-11-25T11:22:47.219Z,7.21
2023-11-25T11:28:12.395Z,7.24
2023-11-25T11:33:15.927Z,7.23
2023-11-25T11:38:29.707Z,7.31
2023-11-25T11:43:31.393Z,7.26
2023-11-25T11:48:33.236Z,7.24
2023-11-25T11:53:35.220Z,7.32
2023-11-25T11:58:36.833Z,7.50
2023-11-25T12:03:39.287Z,7.46
2023-11-25T12:08:41.256Z,7.42
2023-11-25T12:13:43.395Z,7.56
2023-11-25T12:18:45.301Z,7.48
2023-11-25T12:23:51.692Z,7.37
2023-11-25T12:28:54.003Z,7.47
2023-11-25T12:33:58.531Z,7.68
2023-11-25T12:39:00.741Z,7.67
2023-11-25T12:44:11.722Z,7.55
2023-11-25T12:49:20.993Z,7.49
2023-11-25T12:54:22.899Z,7.59
2023-11-25T12:59:30.231Z,7.70
2023-11-25T13:04:32.047Z,7.85
2023-11-25T13:09:34.768Z,8.05
2023-11-25T13:14:38.959Z,8.23
2023-11-25T13:19:44.976Z,8.23
2023-11-25T13:24:47.144Z,8.05
2023-11-25T13:29:49.013Z,8.32
2023-11-25T13:34:51.952Z,8.28
2023-11-25T13:39:56.696Z,8.22
2023-11-25T13:44:59.367Z,8.12
2023-11-25T13:50:02.060Z,8.11
2023-11-25T13:55:13.898Z,8.13
2023-11-25T14:00:16.282Z,8.19
2023-11-25T14:05:19.668Z,8.29
2023-11-25T14:10:21.732Z,8.20
2023-11-25T14:15:23.518Z,8.16
2023-11-25T14:20:25.376Z,8.03
2023-11-25T14:25:27.429Z,8.04
2023-11-25T14:30:31.659Z,8.01
2023-11-25T14:35:33.742Z,8.10
2023-11-25T14:40:39.437Z,8.27
2023-11-25T14:45:41.582Z,8.07
2023-11-25T14:50:43.143Z,8.05
2023-11-25T14:55:47.956Z,7.81
2023-11-25T15:00:49.605Z,7.77
2023-11-25T15:05:51.766Z,7.66
2023-11-25T15:10:59.746Z,7.60
2023-11-25T15:16:04.983Z,7.53
2023-11-25T15:21:06.692Z,7.52
2023-11-25T15:26:08.270Z,7.52
2023-11-25T15:31:14.631Z,7.45
2023-11-25T15:36:16.799Z,7.31
2023-11-25T15:41:18.446Z,7.20
2023-11-25T15:46:20.181Z,7.17
2023-11-25T15:51:22.923Z,7.20
2023-11-25T15:56:24.565Z,7.21
2023-11-25T16:01:26.657Z,7.21
2023-11-25T16:06:28.370Z,7.10
2023-11-25T16:11:29.935Z,7.14
2023-11-25T16:16:33.169Z,7.07
2023-11-25T16:21:37.836Z,7.05
2023-11-25T16:26:39.492Z,7.05
2023-11-25T16:31:41.258Z,7.08
2023-11-25T16:36:42.801Z,7.01
2023-11-25T16:41:50.534Z,7.02
2023-11-25T16:46:52.309Z,6.98
2023-11-25T16:51:54.211Z,7.03
2023-11-25T16:56:55.910Z,7.04
2023-11-25T17:01:58.348Z,6.97
2023-11-25T17:07:02.196Z,7.07
2023-11-25T17:12:04.452Z,7.05
2023-11-25T17:17:09.558Z,7.12
2023-11-25T17:22:11.351Z,7.08
2023-11-25T17:27:12.924Z,7.25
2023-11-25T17:32:14.557Z,7.37
2023-11-25T17:37:18.021Z,7.49
2023-11-25T17:42:19.595Z,7.55
2023-11-25T17:47:21.154Z,7.54
2023-11-25T17:52:23.144Z,7.47
2023-11-25T17:57:24.726Z,7.38
2023-11-25T18:02:26.593Z,7.08
2023-11-25T18:07:28.734Z,6.91
2023-11-25T18:12:30.666Z,6.82
2023-11-25T18:17:33.213Z,6.85
2023-11-25T18:22:34.835Z,6.90
2023-11-25T18:27:36.377Z,6.92
2023-11-25T18:32:38.181Z,6.96
2023-11-25T18:37:39.859Z,6.89
2023-11-25T18:42:42.399Z,6.84
2023-11-25T18:47:44.054Z,6.82
2023-11-25T18:52:45.635Z,6.84
2023-11-25T18:57:47.318Z,6.89
2023-11-25T19:02:49.078Z,6.94
2023-11-25T19:07:51.269Z,6.86
2023-11-25T19:12:52.781Z,6.86
2023-11-25T19:17:54.469Z,6.94
2023-11-25T19:22:56.108Z,6.91
2023-11-25T19:27:57.575Z,6.97
2023-11-25T19:32:59.816Z,6.95
2023-11-25T19:38:01.798Z,6.89
2023-11-25T19:43:03.485Z,6.95
2023-11-25T19:48:05.445Z,6.98
2023-11-25T19:53:08.470Z,7.08
2023-11-25T19:58:11.024Z,6.97
2023-11-25T20:03:12.602Z,6.90
2023-11-25T20:08:14.643Z,6.83
2023-11-25T20:13:16.443Z,6.58
2023-11-25T20:18:19.218Z,6.45
2023-11-25T20:23:21.229Z,6.28
2023-11-25T20:28:23.715Z,6.14
2023-11-25T20:33:25.485Z,6.03
2023-11-25T20:38:27.444Z,5.93
2023-11-25T20:43:28.914Z,5.83
2023-11-25T20:48:30.416Z,5.72
2023-11-25T20:53:33.082Z,5.66
2023-11-25T20:58:34.855Z,5.59
2023-11-25T21:03:36.536Z,5.52
2023-11-25T21:08:38.141Z,5.47
2023-11-25T21:13:40.046Z,5.41
2023-11-25T21:18:41.623Z,5.30
2023-11-25T21:23:43.125Z,5.23
2023-11-25T21:28:44.587Z,5.17
2023-11-25T21:33:46.378Z,5.12
2023-11-25T21:38:48.080Z,5.05
2023-11-25T21:43:49.715Z,5.04
2023-11-25T21:48:51.378Z,5.02
2023-11-25T21:53:52.992Z,5.04
2023-11-25T21:58:54.541Z,4.99
2023-11-25T22:03:56.944Z,4.97
2023-11-25T22:08:59.185Z,4.92
2023-11-25T22:14:01.366Z,4.91
2023-11-25T22:19:02.922Z,4.89
2023-11-25T22:24:04.874Z,4.87
2023-11-25T22:29:06.888Z,4.84
2023-11-25T22:34:08.765Z,4.84
2023-11-25T22:39:10.327Z,4.86
2023-11-25T22:44:11.838Z,4.86
2023-11-25T22:49:13.795Z,4.82
2023-11-25T22:54:18.420Z,4.74
2023-11-25T22:59:19.999Z,4.65
2023-11-25T23:04:21.522Z,4.59
2023-11-25T23:09:23.604Z,4.48
2023-11-25T23:14:25.256Z,4.44
2023-11-25T23:19:26.831Z,4.43
2023-11-25T23:24:28.334Z,4.52
2023-11-25T23:29:31.156Z,4.54
2023-11-25T23:34:33.389Z,4.56
2023-11-25T23:39:34.839Z,4.63
2023-11-25T23:44:36.690Z,4.60
2023-11-25T23:49:38.226Z,4.63
2023-11-25T23:54:43.410Z,4.60
2023-11-25T23:59:45.821Z,4.51
